Time;durP1;ratioP1;P1;durP2;ratioP2;P2;SDS_P1;SDS_P2;PMS_P1;PMS_P2;Temp;Humidity;BMP_temperature;BMP_pressure;BME280_temperature;BME280_humidity;BME280_pressure;Samples;Min_cycle;Max_cycle;Signal;HPM_P1;HPM_P2
2022/12/31 00:01:39;;;;;;;55.90;34.30;;;;;;;4.41;66.66;99153.83;234833;1196;139996;-71
2022/12/31 00:07:36;;;;;;;;;;;;;;;;;;;;;
2022/12/31 00:13:16;;;;;;;64.00;36.20;;;;;;;4.24;66.41;99147.22;234771;1193;140715;-72
2022/12/31 00:18:29;;;;;;;62.10;36.40;;;;;;;4.18;66.60;99142.88;235021;1196;139918;-72
2022/12/31 00:24:29;;;;;;;;;;;;;;;;;;;;;
2022/12/31 00:30:47;;;;;;;64.10;35.70;;;;;;;4.14;66.55;99147.41;234951;1193;139935;-72
2022/12/31 00:37:05;;;;;;;;;;;;;;;;;;;;;
2022/12/31 00:56:42;;;;;;;57.50;34.60;;;;;;;4.06;65.95;99156.10;235062;1193;139350;-69
2022/12/31 01:02:56;;;;;;;57.10;34.60;;;;;;;3.98;66.53;99152.85;234840;1192;140180;-71
2022/12/31 01:09:02;;;;;;;;;;;;;;;;;;;;;
2022/12/31 01:15:09;;;;;;;57.50;33.80;;;;;;;3.92;67.23;99130.78;234909;1193;138983;-73
2022/12/31 01:20:38;;;;;;;60.90;35.00;;;;;;;3.85;67.11;99129.95;234997;1193;140096;-69
2022/12/31 01:26:19;;;;;;;55.60;34.20;;;;;;;3.82;67.86;99128.67;234909;1193;139095;-73
2022/12/31 01:32:34;;;;;;;54.60;31.60;;;;;;;3.81;68.13;99122.72;234884;1194;139437;-72
2022/12/31 01:38:58;;;;;;;49.70;30.60;;;;;;;3.87;68.03;99119.89;234913;1193;139473;-71
2022/12/31 01:44:46;;;;;;;50.60;30.80;;;;;;;3.95;68.27;99116.63;234906;1193;140057;-72
2022/12/31 01:51:18;;;;;;;51.20;31.20;;;;;;;4.12;68.08;99116.58;234947;1194;140045;-68
2022/12/31 01:57:51;;;;;;;52.60;31.30;;;;;;;4.26;67.95;99119.05;234867;1193;139136;-69
2022/12/31 02:24:51;;;;;;;47.40;28.70;;;;;;;4.32;67.42;99126.25;234930;1193;139293;-69
2022/12/31 02:38:42;;;;;;;44.30;26.80;;;;;;;4.29;68.19;99118.45;234472;1193;125352;-65
2022/12/31 02:53:00;;;;;;;43.20;25.60;;;;;;;4.40;68.62;99128.59;234537;1193;138569;-69
2022/12/31 03:07:30;;;;;;;43.10;25.40;;;;;;;4.54;68.59;99113.86;234950;1196;139042;-69
2022/12/31 03:27:57;;;;;;;41.00;25.60;;;;;;;4.79;68.34;99093.23;234433;1197;138874;-66
2022/12/31 03:34:00;;;;;;;;;;;;;;;;;;;;;
2022/12/31 03:40:14;;;;;;;45.20;25.70;;;;;;;4.81;68.27;99085.61;234153;1197;139181;-65
2022/12/31 03:45:51;;;;;;;46.50;25.60;;;;;;;4.85;68.16;99066.66;234307;1196;139689;-65
2022/12/31 03:52:07;;;;;;;;;;;;;;;;;;;;;
2022/12/31 03:58:22;;;;;;;46.70;26.40;;;;;;;4.79;68.13;99096.58;234278;1199;139409;-68
2022/12/31 04:11:32;;;;;;;;;;;;;;;;;;;;;
2022/12/31 04:17:42;;;;;;;;;;;;;;;;;;;;;
2022/12/31 04:23:42;;;;;;;62.20;37.00;;;;;;;4.61;67.72;99126.95;234366;1195;139885;-65
2022/12/31 04:30:36;;;;;;;60.10;36.20;;;;;;;4.71;67.35;99135.89;234687;1195;140048;-71
2022/12/31 04:38:03;;;;;;;57.90;36.40;;;;;;;4.73;67.16;99132.67;232218;1213;644054;-68
2022/12/31 04:44:03;;;;;;;61.50;36.20;;;;;;;4.68;67.02;99130.36;233986;1200;139056;-68
2022/12/31 04:51:06;;;;;;;;;;;;;;;;;;;;;
2022/12/31 04:57:31;;;;;;;55.10;35.60;;;;;;;4.60;67.32;99134.22;234151;1198;138115;-69
2022/12/31 05:04:06;;;;;;;53.30;33.20;;;;;;;4.47;67.40;99141.31;234326;1198;138913;-65
2022/12/31 05:10:22;;;;;;;;;;;;;;;;;;;;;
2022/12/31 05:16:32;;;;;;;43.80;28.10;;;;;;;4.44;68.48;99165.66;234112;1199;138504;-64
2022/12/31 05:30:05;;;;;;;;;;;;;;;;;;;;;
2022/12/31 05:49:55;;;;;;;;;;;;;;;;;;;;;
2022/12/31 05:56:34;;;;;;;45.40;28.10;;;;;;;5.26;67.88;99160.39;234677;1195;138896;-66
2022/12/31 06:17:58;;;;;;;119.90;71.70;;;;;;;5.23;68.07;99164.73;234569;1202;108062;-68
2022/12/31 06:52:29;;;;;;;;;;;;;;;;;;;;;
2022/12/31 06:58:34;;;;;;;51.20;31.50;;;;;;;5.28;67.43;99206.04;234260;1197;138306;-68
2022/12/31 07:04:53;;;;;;;45.20;29.70;;;;;;;5.28;67.54;99218.89;234230;1203;138273;-67
2022/12/31 07:11:22;;;;;;;51.40;30.50;;;;;;;5.24;67.72;99218.52;234514;1195;139182;-67
2022/12/31 07:18:15;;;;;;;;;;;;;;;;;;;;;
2022/12/31 07:46:04;;;;;;;44.60;26.90;;;;;;;5.77;69.47;99235.13;234576;1196;137938;-68
2022/12/31 07:51:54;;;;;;;45.30;27.50;;;;;;;5.98;69.11;99224.98;234698;1195;138362;-68
2022/12/31 08:12:14;;;;;;;;;;;;;;;;;;;;;
2022/12/31 08:18:10;;;;;;;31.40;21.00;;;;;;;6.87;70.43;99246.13;234661;1195;124517;-63
2022/12/31 08:24:52;;;;;;;;;;;;;;;;;;;;;
2022/12/31 08:31:48;;;;;;;57.00;35.90;;;;;;;7.67;70.43;99227.81;234428;1196;138452;-64
2022/12/31 08:37:53;;;;;;;;;;;;;;;;;;;;;
2022/12/31 08:43:49;;;;;;;;;;;;;;;;;;;;;
2022/12/31 08:50:43;;;;;;;12.00;7.60;;;;;;;9.04;70.13;99225.10;234363;1196;139210;-62
2022/12/31 08:57:14;;;;;;;;;;;;;;;;;;;;;
2022/12/31 09:17:45;;;;;;;9.60;6.30;;;;;;;10.46;67.52;99244.50;234998;1194;138293;-70
2022/12/31 09:23:28;;;;;;;;;;;;;;;;;;;;;
2022/12/31 09:29:50;;;;;;;10.70;7.90;;;;;;;10.78;67.12;99233.45;234784;1195;138759;-74
2022/12/31 09:36:08;;;;;;;;;;;;;;;;;;;;;
2022/12/31 09:42:22;;;;;;;;;;;;;;;;;;;;;
2022/12/31 09:48:32;;;;;;;8.50;6.80;;;;;;;11.25;65.70;99225.22;234777;1194;138796;-69
2022/12/31 09:53:57;;;;;;;9.40;6.50;;;;;;;11.60;68.34;99224.61;234890;1193;139016;-68
2022/12/31 10:00:19;;;;;;;8.40;6.10;;;;;;;11.78;65.58;99211.40;234864;1193;138844;-67
2022/12/31 10:06:31;;;;;;;;;;;;;;;;;;;;;
2022/12/31 10:13:04;;;;;;;7.30;4.80;;;;;;;12.01;64.97;99199.61;234807;1196;138806;-69
2022/12/31 10:18:43;;;;;;;7.40;4.90;;;;;;;12.14;64.31;99202.88;234699;1193;139756;-68
2022/12/31 10:24:29;;;;;;;7.40;4.90;;;;;;;12.23;63.92;99209.77;234763;1196;138567;-68
2022/12/31 10:31:17;;;;;;;7.20;4.90;;;;;;;12.35;63.86;99207.70;234764;1195;138801;-68
2022/12/31 10:38:11;;;;;;;;;;;;;;;;;;;;;
2022/12/31 10:43:40;;;;;;;7.50;4.40;;;;;;;12.70;63.47;99191.98;234854;1194;139232;-65
2022/12/31 10:49:45;;;;;;;;;;;;;;;;;;;;;
2022/12/31 10:56:09;;;;;;;;;;;;;;;;;;;;;
2022/12/31 11:02:02;;;;;;;10.30;6.70;;;;;;;13.20;63.26;99169.45;234829;1193;138622;-67
2022/12/31 11:07:56;;;;;;;;;;;;;;;;;;;;;
2022/12/31 11:13:37;;;;;;;7.10;2.70;;;;;;;13.33;62.32;99180.48;234841;1193;138674;-67
2022/12/31 11:19:32;;;;;;;3.00;2.40;;;;;;;13.40;62.20;99185.20;234882;1194;138827;-68
2022/12/31 11:25:11;;;;;;;9.90;7.10;;;;;;;13.46;62.33;99178.86;234636;1196;139094;-67
2022/12/31 11:30:46;;;;;;;3.30;1.90;;;;;;;13.52;62.42;99175.45;234687;1193;138613;-67
2022/12/31 11:36:40;;;;;;;5.40;1.80;;;;;;;13.56;62.42;99173.69;234674;1195;138157;-67
2022/12/31 11:42:00;;;;;;;3.60;1.70;;;;;;;13.63;62.40;99177.79;234730;1196;139116;-66
2022/12/31 11:48:19;;;;;;;3.00;1.70;;;;;;;13.68;62.30;99189.77;234849;1197;139196;-64
2022/12/31 11:54:47;;;;;;;3.40;2.30;;;;;;;13.72;62.32;99194.11;234765;1193;138972;-64
2022/12/31 12:00:02;;;;;;;4.10;2.50;;;;;;;13.74;62.16;99188.64;234487;1193;139352;-65
2022/12/31 12:06:07;;;;;;;5.40;2.40;;;;;;;13.76;62.17;99182.80;234808;1195;139269;-67
2022/12/31 12:12:21;;;;;;;;;;;;;;;;;;;;;
2022/12/31 12:18:27;;;;;;;3.50;1.60;;;;;;;13.82;61.91;99175.02;234565;1193;139893;-67
2022/12/31 12:23:53;;;;;;;2.70;1.60;;;;;;;13.85;61.68;99179.73;234723;1193;139303;-68
2022/12/31 12:29:54;;;;;;;;;;;;;;;;;;;;;
2022/12/31 12:35:38;;;;;;;3.20;1.30;;;;;;;13.92;61.23;99167.30;234783;1193;138769;-66
2022/12/31 12:41:45;;;;;;;2.30;1.50;;;;;;;13.97;61.11;99167.33;234784;1193;139093;-66
2022/12/31 12:47:07;;;;;;;3.60;1.80;;;;;;;14.03;60.99;99164.90;234769;1194;139311;-67
2022/12/31 12:53:02;;;;;;;6.90;3.80;;;;;;;14.09;61.04;99160.35;234862;1193;139925;-68
2022/12/31 12:58:35;;;;;;;3.90;2.20;;;;;;;14.14;60.64;99157.68;234651;1193;139261;-68
2022/12/31 13:04:41;;;;;;;4.70;2.20;;;;;;;14.13;60.57;99163.25;234771;1195;139735;-67
2022/12/31 13:10:11;;;;;;;;;;;;;;;;;;;;;
2022/12/31 13:16:41;;;;;;;4.00;1.80;;;;;;;14.13;60.30;99156.30;234900;1194;138479;-68
2022/12/31 13:22:01;;;;;;;8.10;2.70;;;;;;;14.13;60.34;99154.19;234610;1194;139144;-67
2022/12/31 13:28:11;;;;;;;;;;;;;;;;;;;;;
2022/12/31 13:34:40;;;;;;;7.50;4.20;;;;;;;14.19;60.52;99159.41;234781;1194;139781;-67
2022/12/31 13:39:41;;;;;;;;;;;;;;;;;;;;;
2022/12/31 13:45:25;;;;;;;;;;;;;;;;;;;;;
2022/12/31 13:51:02;;;;;;;;;;;;;;;14.15;60.01;99163.66;234849;1193;139107;-69
2022/12/31 13:56:58;;;;;;;5.60;2.20;;;;;;;14.10;60.07;99167.37;234841;1193;125119;-68
2022/12/31 14:03:01;;;;;;;5.30;2.50;;;;;;;14.08;60.22;99176.79;234718;1193;139237;-68
2022/12/31 14:08:40;;;;;;;;;;;;;;;;;;;;;
2022/12/31 14:14:46;;;;;;;20.30;4.40;;;;;;;14.07;60.17;99186.89;234786;1193;138599;-68
2022/12/31 14:21:04;;;;;;;8.70;3.40;;;;;;;14.04;60.20;99185.36;234689;1194;138635;-67
2022/12/31 14:26:36;;;;;;;;;;;;;;;;;;;;;
2022/12/31 14:32:24;;;;;;;9.60;5.20;;;;;;;14.02;60.82;99182.50;234870;1193;139499;-68
2022/12/31 14:38:07;;;;;;;5.60;3.00;;;;;;;14.04;60.62;99189.45;234814;1195;139110;-67
2022/12/31 14:44:20;;;;;;;5.50;3.50;;;;;;;14.04;60.50;99195.65;234922;1194;138956;-66
2022/12/31 14:49:46;;;;;;;7.20;3.10;;;;;;;14.02;60.59;99197.81;234632;1195;139547;-67
2022/12/31 14:55:00;;;;;;;8.30;3.40;;;;;;;13.98;60.52;99194.02;234907;1193;138771;-67
2022/12/31 15:01:01;;;;;;;7.00;3.40;;;;;;;13.96;60.66;99202.02;234838;1194;140010;-68
2022/12/31 15:06:14;;;;;;;4.10;3.10;;;;;;;13.90;60.59;99214.36;234608;1193;138771;-70
2022/12/31 15:11:56;;;;;;;6.00;3.30;;;;;;;13.82;60.85;99216.58;234800;1195;138757;-68
2022/12/31 15:17:18;;;;;;;5.60;3.80;;;;;;;13.78;60.99;99215.28;234748;1194;139016;-66
2022/12/31 15:29:10;;;;;;;8.50;4.20;;;;;;;13.70;61.28;99204.56;234719;1195;139417;-67
2022/12/31 15:34:31;;;;;;;6.60;4.10;;;;;;;13.65;61.37;99214.00;234693;1194;139276;-67
2022/12/31 15:40:30;;;;;;;;;;;;;;;;;;;;;
2022/12/31 15:46:46;;;;;;;7.90;3.90;;;;;;;13.56;61.48;99239.31;234785;1195;139224;-69
2022/12/31 15:59:24;;;;;;;5.80;4.10;;;;;;;13.44;61.94;99245.10;234149;1198;138803;-67
2022/12/31 16:04:54;;;;;;;5.90;4.10;;;;;;;13.43;61.95;99244.13;234820;1194;138969;-68
2022/12/31 16:16:36;;;;;;;10.00;6.30;;;;;;;13.58;63.05;99247.33;234681;1195;139784;-68
2022/12/31 16:22:41;;;;;;;11.70;6.20;;;;;;;13.68;62.07;99246.05;234771;1195;140519;-69
2022/12/31 16:29:07;;;;;;;18.10;9.40;;;;;;;13.72;61.73;99244.20;234708;1195;139644;-68
2022/12/31 16:35:18;;;;;;;12.50;8.20;;;;;;;13.73;61.59;99243.77;234603;1193;139626;-68
2022/12/31 16:41:02;;;;;;;;;;;;;;;;;;;;;
2022/12/31 16:46:40;;;;;;;;;;;;;;;;;;;;;
2022/12/31 16:51:50;;;;;;;12.70;7.50;;;;;;;13.66;61.58;99265.32;234737;1198;138479;-66
2022/12/31 16:57:56;;;;;;;;;;;;;;;;;;;;;
2022/12/31 17:17:33;;;;;;;9.30;5.90;;;;;;;13.51;61.73;99270.48;233958;1197;139374;-67
2022/12/31 17:23:24;;;;;;;;;;;;;;;;;;;;;
2022/12/31 17:30:11;;;;;;;;;;;;;;;;;;;;;
2022/12/31 17:36:07;;;;;;;12.20;6.10;;;;;;;13.56;61.83;99268.39;234288;1198;139489;-67
2022/12/31 17:42:32;;;;;;;9.10;6.50;;;;;;;13.51;61.86;99265.16;234597;1196;140113;-69
2022/12/31 17:47:57;;;;;;;9.10;6.40;;;;;;;13.47;61.73;99267.38;234628;1196;139894;-67
2022/12/31 17:54:59;;;;;;;13.10;6.10;;;;;;;13.44;61.88;99272.56;234684;1193;139721;-67
2022/12/31 18:00:18;;;;;;;12.40;6.40;;;;;;;13.43;62.00;99275.86;234448;1195;139121;-66
2022/12/31 18:05:57;;;;;;;;;;;;;;;;;;;;;
2022/12/31 18:11:50;;;;;;;;;;;;;;;;;;;;;
2022/12/31 18:17:50;;;;;;;;;;;;;;;;;;;;;
2022/12/31 18:24:07;;;;;;;182.50;123.70;;;;;;;13.66;61.37;99282.45;234849;1193;139244;-69
2022/12/31 18:29:38;;;;;;;35.20;21.20;;;;;;;13.87;63.16;99281.66;234707;1196;140585;-68
2022/12/31 18:35:38;;;;;;;19.60;12.50;;;;;;;14.16;62.64;99282.59;234696;1195;139394;-68
2022/12/31 18:46:50;;;;;;;13.90;8.20;;;;;;;14.42;59.88;99279.11;234742;1196;140235;-67
2022/12/31 18:51:58;;;;;;;16.70;10.50;;;;;;;13.99;59.47;99279.17;234718;1198;139892;-67
2022/12/31 18:57:25;;;;;;;31.30;19.80;;;;;;;13.67;59.68;99293.05;234834;1195;139240;-68
2022/12/31 19:03:04;;;;;;;;;;;;;;;;;;;;;
2022/12/31 19:08:14;;;;;;;25.20;15.50;;;;;;;13.21;61.11;99294.27;234647;1199;138964;-71
2022/12/31 19:14:21;;;;;;;;;;;;;;;;;;;;;
2022/12/31 19:20:06;;;;;;;;;;;;;;;;;;;;;
2022/12/31 19:25:51;;;;;;;26.00;17.10;;;;;;;13.00;62.19;99309.77;234814;1193;139045;-69
2022/12/31 19:31:45;;;;;;;;;;;;;;;;;;;;;
2022/12/31 19:38:06;;;;;;;;;;;;;;;;;;;;;
2022/12/31 19:43:43;;;;;;;181.10;128.20;;;;;;;13.06;62.35;99302.10;234751;1194;139640;-70
2022/12/31 19:49:26;;;;;;;30.80;20.40;;;;;;;13.09;62.00;99301.54;234712;1196;139259;-69
2022/12/31 19:54:49;;;;;;;;;;;;;;;;;;;;;
2022/12/31 20:00:15;;;;;;;;;;;;;;;;;;;;;
2022/12/31 20:05:24;;;;;;;;;;;;;;;12.92;61.99;99318.37;234739;1193;139331;-68
2022/12/31 20:11:17;;;;;;;26.70;18.30;;;;;;;12.85;62.11;99318.46;234915;1195;125296;-68
2022/12/31 20:17:33;;;;;;;27.70;17.80;;;;;;;12.71;61.48;99324.04;234782;1196;140347;-71
2022/12/31 20:22:47;;;;;;;35.50;19.40;;;;;;;12.39;61.79;99325.77;234651;1198;139450;-70
2022/12/31 20:28:16;;;;;;;30.90;19.70;;;;;;;12.13;61.83;99335.61;234668;1193;139699;-69
2022/12/31 20:40:10;;;;;;;39.90;24.00;;;;;;;11.55;62.58;99346.09;234250;1196;138939;-74
2022/12/31 20:45:31;;;;;;;51.20;28.20;;;;;;;11.24;63.08;99360.95;234483;1196;139105;-74
2022/12/31 20:51:34;;;;;;;41.90;24.10;;;;;;;10.99;63.69;99364.93;234693;1196;139919;-76
2022/12/31 21:03:37;;;;;;;42.00;25.80;;;;;;;10.67;64.39;99362.67;234285;1201;139693;-74
2022/12/31 21:11:10;;;;;;;;;;;;;;;;;;;;;
2022/12/31 21:16:44;;;;;;;43.10;27.00;;;;;;;10.48;64.75;99343.02;233977;1200;139220;-75
2022/12/31 21:23:16;;;;;;;37.10;23.70;;;;;;;10.30;65.04;99341.02;234204;1199;139677;-72
2022/12/31 21:29:31;;;;;;;32.10;21.30;;;;;;;10.22;65.93;99338.08;234131;1200;139172;-71
2022/12/31 21:41:52;;;;;;;23.80;14.20;;;;;;;10.72;65.94;99324.59;234755;1198;140178;-73
2022/12/31 22:07:12;;;;;;;17.50;10.70;;;;;;;12.22;64.63;99334.17;234421;1194;139364;-75
2022/12/31 22:18:48;;;;;;;21.50;11.70;;;;;;;12.34;63.10;99331.93;234555;1196;139209;-74
2022/12/31 22:25:01;;;;;;;;;;;;;;;;;;;;;
2022/12/31 22:37:24;;;;;;;;;;;;;;;;;;;;;
2022/12/31 22:43:09;;;;;;;23.60;14.60;;;;;;;12.54;63.05;99330.30;234707;1195;139300;-71
2022/12/31 22:49:48;;;;;;;;;;;;;;;;;;;;;
2022/12/31 22:56:41;;;;;;;28.60;18.40;;;;;;;12.67;62.68;99326.80;234557;1195;138801;-73
2022/12/31 23:02:26;;;;;;;38.80;24.70;;;;;;;12.76;62.51;99327.96;234737;1194;139085;-70
2022/12/31 23:07:44;;;;;;;84.30;50.50;;;;;;;12.82;62.28;99330.25;234556;1195;140350;-71
2022/12/31 23:26:37;;;;;;;57.90;39.10;;;;;;;13.09;62.11;99336.11;234587;1196;140033;-71
2022/12/31 23:31:55;;;;;;;68.80;44.50;;;;;;;13.12;61.34;99338.73;234587;1196;139474;-72
2022/12/31 23:37:45;;;;;;;53.10;33.50;;;;;;;13.16;60.99;99341.32;234698;1194;139955;-69
2022/12/31 23:43:56;;;;;;;;;;;;;;;;;;;;;
